Map

Track Data

SID SEASON NUMBER BASIN SUBBASIN NAME ISO_TIME NATURE LAT LON WMO_WIND WMO_PRES WMO_AGENCY TRACK_TYPE DIST2LAND LANDFALL IFLAG USA_AGENCY USA_ATCF_ID USA_LAT USA_LON USA_RECORD USA_STATUS USA_WIND USA_PRES USA_SSHS USA_R34_NE USA_R34_SE USA_R34_SW USA_R34_NW USA_R50_NE USA_R50_SE USA_R50_SW USA_R50_NW USA_R64_NE USA_R64_SE USA_R64_SW USA_R64_NW USA_POCI USA_ROCI USA_RMW USA_EYE TOKYO_LAT TOKYO_LON TOKYO_GRADE TOKYO_WIND TOKYO_PRES TOKYO_R50_DIR TOKYO_R50_LONG TOKYO_R50_SHORT TOKYO_R30_DIR TOKYO_R30_LONG TOKYO_R30_SHORT TOKYO_LAND CMA_LAT CMA_LON CMA_CAT CMA_WIND CMA_PRES HKO_LAT HKO_LON HKO_CAT HKO_WIND HKO_PRES NEWDELHI_LAT NEWDELHI_LON NEWDELHI_GRADE NEWDELHI_WIND NEWDELHI_PRES NEWDELHI_CI NEWDELHI_DP NEWDELHI_POCI REUNION_LAT REUNION_LON REUNION_TYPE REUNION_WIND REUNION_PRES REUNION_TNUM REUNION_CI REUNION_RMW REUNION_R34_NE REUNION_R34_SE REUNION_R34_SW REUNION_R34_NW REUNION_R50_NE REUNION_R50_SE REUNION_R50_SW REUNION_R50_NW REUNION_R64_NE REUNION_R64_SE REUNION_R64_SW REUNION_R64_NW BOM_LAT BOM_LON BOM_TYPE BOM_WIND BOM_PRES BOM_TNUM BOM_CI BOM_RMW BOM_R34_NE BOM_R34_SE BOM_R34_SW BOM_R34_NW BOM_R50_NE BOM_R50_SE BOM_R50_SW BOM_R50_NW BOM_R64_NE BOM_R64_SE BOM_R64_SW BOM_R64_NW BOM_ROCI BOM_POCI BOM_EYE BOM_POS_METHOD BOM_PRES_METHOD NADI_LAT NADI_LON NADI_CAT NADI_WIND NADI_PRES WELLINGTON_LAT WELLINGTON_LON WELLINGTON_WIND WELLINGTON_PRES DS824_LAT DS824_LON DS824_STAGE DS824_WIND DS824_PRES TD9636_LAT TD9636_LON TD9636_STAGE TD9636_WIND TD9636_PRES TD9635_LAT TD9635_LON TD9635_WIND TD9635_PRES TD9635_ROCI NEUMANN_LAT NEUMANN_LON NEUMANN_CLASS NEUMANN_WIND NEUMANN_PRES MLC_LAT MLC_LON MLC_CLASS MLC_WIND MLC_PRES USA_GUST BOM_GUST BOM_GUST_PER REUNION_GUST REUNION_GUST_PER USA_SEAHGT USA_SEARAD_NE USA_SEARAD_SE USA_SEARAD_SW USA_SEARAD_NW STORM_SPEED STORM_DIR
1973355N01152 1973 140 WP MM NOT_NAMED 1973-12-21 00:00:00 TS 0.500000 152.000 main 378 366 __O___________ -1 0.500000 152.000 0 19 1008 8 269
1973355N01152 1973 140 WP MM NOT_NAMED 1973-12-21 03:00:00 TS 0.490004 151.610 main 366 360 __P___________ -1 0.490004 151.610 0 19 1008 8 270
1973355N01152 1973 140 WP MM NOT_NAMED 1973-12-21 06:00:00 TS 0.500000 151.200 main 360 358 __O___________ -1 0.500000 151.200 0 19 1008 9 274
1973355N01152 1973 140 WP MM NOT_NAMED 1973-12-21 09:00:00 TS 0.542498 150.758 main 358 358 __P___________ -1 0.542498 150.758 0 19 1008 9 276
1973355N01152 1973 140 WP MM NOT_NAMED 1973-12-21 12:00:00 TS 0.600000 150.300 main 375 375 __O___________ -1 0.600000 150.300 0 19 1008 9 276
1973355N01152 1973 140 WP MM NOT_NAMED 1973-12-21 15:00:00 TS 0.634996 149.850 main 389 384 __P___________ -1 0.634996 149.850 0 24 1007 9 276
1973355N01152 1973 140 WP MM NOT_NAMED 1973-12-21 18:00:00 TS 0.700000 149.400 main 384 370 __O___________ -1 0.700000 149.400 1 29 1007 9 281
1973355N01152 1973 140 WP MM NOT_NAMED 1973-12-21 21:00:00 TS 0.804979 148.995 main 370 361 __P___________ -1 0.804979 148.995 1 29 1006 10 288
1973355N01152 1973 140 WP MM NOT_NAMED 1973-12-22 00:00:00 TS 1.00000 148.500 main 368 364 __O___________ -1 1.00000 148.500 1 29 1006 12 293
1973355N01152 1973 140 WP MM NOT_NAMED 1973-12-22 03:00:00 TS 1.28997 147.847 main 383 382 __P___________ -1 1.28997 147.847 1 29 1006 17 295
1973355N01152 1973 140 WP MM NOT_NAMED 1973-12-22 06:00:00 TS 1.70000 147.000 main 425 425 __O___________ -1 1.70000 147.000 1 29 1006 21 297
1973355N01152 1973 140 WP MM NOT_NAMED 1973-12-22 09:00:00 TS 2.23501 145.960 main 486 486 __P___________ -1 2.23501 145.960 1 26 1006 25 297
1973355N01152 1973 140 WP MM NOT_NAMED 1973-12-22 12:00:00 TS 2.80000 144.800 main 584 584 __O___________ -1 2.80000 144.800 1 23 1006 25 294
1973355N01152 1973 140 WP MM NOT_NAMED 1973-12-22 15:00:00 TS 3.27231 143.680 main 685 685 __P___________ -1 3.27231 143.680 1 21 1006 25 291
1973355N01152 1973 140 WP MM NOT_NAMED 1973-12-22 18:00:00 TS 3.70000 142.500 main 720 717 __O___________ -1 3.70000 142.500 0 19 1006 27 289
1973355N01152 1973 140 WP MM NOT_NAMED 1973-12-22 21:00:00 TS 4.15259 141.178 main 727 708 __P___________ -1 4.15259 141.178 0 19 1006 27 287
1973355N01152 1973 140 WP MM NOT_NAMED 1973-12-23 00:00:00 TS 4.50000 139.900 main 709 691 __O___________ -1 4.50000 139.900 0 19 1006 24 282
1973355N01152 1973 140 WP MM NOT_NAMED 1973-12-23 03:00:00 TS 4.63721 138.840 main 685 659 __P___________ -1 4.63721 138.840 0 19 1006 20 276
1973355N01152 1973 140 WP MM NOT_NAMED 1973-12-23 06:00:00 TS 4.70000 137.900 main 655 635 __O___________ -1 4.70000 137.900 0 19 1006 19 276
1973355N01152 1973 140 WP MM NOT_NAMED 1973-12-23 09:00:00 TS 4.82732 136.985 main 635 632 __P___________ -1 4.82732 136.985 0 19 1006 18 279
1973355N01152 1973 140 WP MM NOT_NAMED 1973-12-23 12:00:00 TS 5.00000 136.100 main 641 639 __O___________ -1 5.00000 136.100 0 19 1007 19 283
1973355N01152 1973 140 WP MM NOT_NAMED 1973-12-23 15:00:00 TS 5.23507 135.148 main 662 662 __P___________ -1 5.23507 135.148 0 19 1007 19 286
1973355N01152 1973 140 WP MM NOT_NAMED 1973-12-23 18:00:00 TS 5.50000 134.300 main 676 660 __O___________ -1 5.50000 134.300 0 19 1007 15 289
1973355N01152 1973 140 WP MM NOT_NAMED 1973-12-23 21:00:00 TS 5.73476 133.697 main 660 635 __P___________ -1 5.73476 133.697 0 19 1007 12 295
1973355N01152 1973 140 WP MM NOT_NAMED 1973-12-24 00:00:00 TS 6.00000 133.200 main 635 615 __O___________ -1 6.00000 133.200 0 19 1007 12 299
1973355N01152 1973 140 WP MM NOT_NAMED 1973-12-24 03:00:00 TS 6.33503 132.620 main 607 600 __P___________ -1 6.33503 132.620 0 19 1007 13 303
1973355N01152 1973 140 WP MM NOT_NAMED 1973-12-24 06:00:00 TS 6.70000 132.100 main 603 564 __O___________ -1 6.70000 132.100 0 19 1007 12 309
1973355N01152 1973 140 WP MM NOT_NAMED 1973-12-24 09:00:00 TS 7.06492 131.705 main 563 529 __P___________ -1 7.06492 131.705 0 19 1007 10 315
1973355N01152 1973 140 WP MM NOT_NAMED 1973-12-24 12:00:00 TS 7.40000 131.400 main 529 496 __O___________ -1 7.40000 131.400 0 19 1007 8 316
1973355N01152 1973 140 WP MM NOT_NAMED 1973-12-24 15:00:00 TS 7.65745 131.135 main 496 474 __P___________ -1 7.65745 131.135 0 19 1006 7 315
1973355N01152 1973 140 WP MM NOT_NAMED 1973-12-24 18:00:00 TS 7.90000 130.900 main 474 444 __O___________ -1 7.90000 130.900 0 19 1006 7 318
1973355N01152 1973 140 WP MM NOT_NAMED 1973-12-24 21:00:00 TS 8.20751 130.635 main 444 426 __P___________ -1 8.20751 130.635 0 21 1006 8 321
1973355N01152 1973 140 WP MM NOT_NAMED 1973-12-25 00:00:00 TS 8.50000 130.400 main 428 412 __O___________ -1 8.50000 130.400 1 23 1006 6 322
1973355N01152 1973 140 WP MM NOT_NAMED 1973-12-25 03:00:00 TS 8.70747 130.235 main 412 404 __P___________ -1 8.70747 130.235 1 23 1006 5 324
1973355N01152 1973 140 WP MM NOT_NAMED 1973-12-25 06:00:00 TS 8.90000 130.100 main 408 401 __O___________ -1 8.90000 130.100 1 23 1006 5 327
1973355N01152 1973 140 WP MM NOT_NAMED 1973-12-25 09:00:00 TS 9.14249 129.950 main 405 388 __P___________ -1 9.14249 129.950 1 23 1006 6 329
1973355N01152 1973 140 WP MM NOT_NAMED 1973-12-25 12:00:00 TS 9.40000 129.800 main 390 381 __O___________ -1 9.40000 129.800 1 23 1006 6 330
1973355N01152 1973 140 WP MM NOT_NAMED 1973-12-25 15:00:00 TS 9.64999 129.650 main 373 368 __P___________ -1 9.64999 129.650 1 26 1006 6 329
1973355N01152 1973 140 WP MM NOT_NAMED 1973-12-25 18:00:00 TS 9.90000 129.500 main 370 362 __O___________ -1 9.90000 129.500 1 29 1006 6 329
1973355N01152 1973 140 WP MM NOT_NAMED 1973-12-25 21:00:00 TS 10.1575 129.343 main 358 351 __P___________ -1 10.1575 129.343 1 33 1004 6 329
1973355N01152 1973 140 WP MM NOT_NAMED 1973-12-26 00:00:00 TS 10.4000 129.200 main 355 349 __O___________ -1 10.4000 129.200 2 38 1002 5 331
1973355N01152 1973 140 WP MM NOT_NAMED 1973-12-26 03:00:00 TS 10.6225 129.085 main 354 349 __P___________ -1 10.6225 129.085 2 38 1001 4 334
1973355N01152 1973 140 WP MM NOT_NAMED 1973-12-26 06:00:00 TS 10.8000 129.000 main 350 349 __O___________ -1 10.8000 129.000 2 38 1000 3 336
1973355N01152 1973 140 WP MM NOT_NAMED 1973-12-26 09:00:00 TS 10.9000 128.957 main 349 338 __P___________ -1 10.9000 128.957 2 38 1000 2 333
1973355N01152 1973 140 WP MM NOT_NAMED 1973-12-26 12:00:00 TS 11.0000 128.900 main 338 327 __O___________ -1 11.0000 128.900 2 38 1000 3 325
1973355N01152 1973 140 WP MM NOT_NAMED 1973-12-26 15:00:00 TS 11.1700 128.765 main 328 307 __P___________ -1 11.1700 128.765 2 38 1000 5 324
1973355N01152 1973 140 WP MM NOT_NAMED 1973-12-26 18:00:00 TS 11.4000 128.600 main 308 299 __O___________ -1 11.4000 128.600 2 38 1000 6 329
1973355N01152 1973 140 WP MM NOT_NAMED 1973-12-26 21:00:00 TS 11.6925 128.450 main 304 290 __P___________ -1 11.6925 128.450 2 38 1001 7 334
1973355N01152 1973 140 WP MM NOT_NAMED 1973-12-27 00:00:00 TS 12.0000 128.300 main 294 289 __O___________ -1 12.0000 128.300 2 38 1002 6 332
1973355N01152 1973 140 WP MM NOT_NAMED 1973-12-27 03:00:00 TS 12.2575 128.142 main 282 272 __P___________ -1 12.2575 128.142 2 33 1003 6 330
1973355N01152 1973 140 WP MM NOT_NAMED 1973-12-27 06:00:00 TS 12.5000 128.000 main 273 264 __O___________ -1 12.5000 128.000 1 29 1005 6 333
1973355N01152 1973 140 WP MM NOT_NAMED 1973-12-27 09:00:00 TS 12.7475 127.890 main 266 261 __P___________ -1 12.7475 127.890 1 24 1005 5 339
1973355N01152 1973 140 WP MM NOT_NAMED 1973-12-27 12:00:00 TS 13.0000 127.800 main 265 __O___________ -1 13.0000 127.800 0 19 1006 5 340

Digital Typhoon Data and Search

About IBTrACS Database

This database is a web-friendly format of International Best Track Archive for Climate Stewardship (IBTrACS), a global best track data archive curated by NOAA dating back to 1842.

Updated: 2021-12-06